createdAt,value
2022-11-14T00:03:00.944Z,25.17
2022-11-14T00:06:07.694Z,26.40
2022-11-14T00:09:13.003Z,25.07
2022-11-14T00:12:20.105Z,25.43
2022-11-14T00:15:26.837Z,25.40
2022-11-14T00:18:32.430Z,25.93
2022-11-14T00:21:38.941Z,24.63
2022-11-14T00:24:45.038Z,25.10
2022-11-14T00:27:51.552Z,24.40
2022-11-14T00:30:57.209Z,26.03
2022-11-14T00:34:02.860Z,26.07
2022-11-14T00:37:08.382Z,24.80
2022-11-14T00:40:14.861Z,25.17
2022-11-14T00:43:21.766Z,24.60
2022-11-14T00:46:27.403Z,26.13
2022-11-14T00:49:33.220Z,25.33
2022-11-14T00:52:39.895Z,25.23
2022-11-14T00:55:45.241Z,26.63
2022-11-14T00:58:52.144Z,26.73
2022-11-14T01:01:58.152Z,25.33
2022-11-14T01:05:03.877Z,25.47
2022-11-14T01:08:09.244Z,21.30
2022-11-14T01:11:18.456Z,25.53
2022-11-14T01:14:24.918Z,25.40
2022-11-14T01:17:30.571Z,26.23
2022-11-14T01:20:36.253Z,26.30
2022-11-14T01:23:41.710Z,25.50
2022-11-14T01:26:47.512Z,26.07
2022-11-14T01:29:54.249Z,25.70
2022-11-14T01:33:00.018Z,28.40
2022-11-14T01:36:06.237Z,27.23
2022-11-14T01:39:11.580Z,25.27
2022-11-14T01:42:17.784Z,27.20
2022-11-14T01:45:54.306Z,24.77
2022-11-14T01:49:04.622Z,25.07
2022-11-14T01:52:15.023Z,27.80
2022-11-14T01:55:20.873Z,27.27
2022-11-14T01:58:27.390Z,26.83
2022-11-14T02:01:37.143Z,27.13
2022-11-14T02:04:48.275Z,26.53
2022-11-14T02:07:53.978Z,25.07
2022-11-14T02:10:59.345Z,24.63
2022-11-14T02:14:05.520Z,25.83
2022-11-14T02:17:30.096Z,26.33
2022-11-14T02:20:43.360Z,27.10
2022-11-14T02:23:48.864Z,26.07
2022-11-14T02:26:54.757Z,26.43
2022-11-14T02:30:06.404Z,24.90
2022-11-14T02:33:12.075Z,26.13
2022-11-14T02:36:19.061Z,28.30
2022-11-14T02:39:25.316Z,25.20
2022-11-14T02:42:31.016Z,26.20
2022-11-14T02:45:36.688Z,26.50
2022-11-14T02:48:42.424Z,27.93
2022-11-14T02:51:49.287Z,26.93
2022-11-14T02:54:54.993Z,26.50
2022-11-14T02:58:00.690Z,27.07
2022-11-14T03:01:20.236Z,27.30
2022-11-14T03:04:26.472Z,26.10
2022-11-14T03:07:34.019Z,27.43
2022-11-14T03:10:39.583Z,28.07
2022-11-14T03:13:45.144Z,27.57
2022-11-14T03:16:50.910Z,25.93
2022-11-14T03:19:56.456Z,25.47
2022-11-14T03:23:03.573Z,29.77
2022-11-14T03:26:10.350Z,27.20
2022-11-14T03:29:15.916Z,26.70
2022-11-14T03:32:20.934Z,27.80
2022-11-14T03:35:26.386Z,27.73
2022-11-14T03:38:34.571Z,27.23
2022-11-14T03:41:40.342Z,26.00
2022-11-14T03:44:46.004Z,24.80
2022-11-14T03:47:51.750Z,26.80
2022-11-14T03:50:57.931Z,27.57
2022-11-14T03:54:11.448Z,27.40
2022-11-14T03:57:17.550Z,26.77
2022-11-14T04:00:28.067Z,27.53
2022-11-14T04:03:36.970Z,25.67
2022-11-14T04:06:42.672Z,27.67
2022-11-14T04:09:49.981Z,28.23
2022-11-14T04:12:56.972Z,26.43
2022-11-14T04:16:02.445Z,26.93
2022-11-14T04:19:08.183Z,27.23
2022-11-14T04:22:14.187Z,26.43
2022-11-14T04:25:21.220Z,24.97
2022-11-14T04:28:26.921Z,25.43
2022-11-14T04:31:32.284Z,26.77
2022-11-14T04:34:38.045Z,27.33
2022-11-14T04:37:43.968Z,26.37
2022-11-14T04:40:51.934Z,26.37
2022-11-14T04:43:57.372Z,25.13
2022-11-14T04:47:02.283Z,25.07
2022-11-14T04:50:08.672Z,28.37
2022-11-14T04:53:14.235Z,25.07
2022-11-14T04:56:23.333Z,26.23
2022-11-14T04:59:29.119Z,28.70
2022-11-14T05:02:34.821Z,29.53
2022-11-14T05:05:42.072Z,29.33
2022-11-14T05:08:48.617Z,25.77
2022-11-14T05:11:55.367Z,24.93
2022-11-14T05:15:01.386Z,24.10
2022-11-14T05:18:06.876Z,25.57
2022-11-14T05:21:14.987Z,24.93
2022-11-14T05:24:20.486Z,23.13
2022-11-14T05:27:26.961Z,25.60
2022-11-14T05:30:32.502Z,24.97
2022-11-14T05:33:38.334Z,24.67
2022-11-14T05:36:43.967Z,24.07
2022-11-14T05:39:49.678Z,25.87
2022-11-14T05:42:57.616Z,26.20
2022-11-14T05:46:04.336Z,22.97
2022-11-14T05:49:09.585Z,23.33
2022-11-14T05:52:15.392Z,24.03
2022-11-14T05:55:24.841Z,25.80
2022-11-14T05:58:32.301Z,25.93
2022-11-14T06:01:37.838Z,24.33
2022-11-14T06:04:43.488Z,25.07
2022-11-14T06:07:49.235Z,25.03
2022-11-14T06:10:54.589Z,22.93
2022-11-14T06:14:06.893Z,23.33
2022-11-14T06:17:14.844Z,25.63
2022-11-14T06:20:21.247Z,23.80
2022-11-14T06:23:27.265Z,28.10
2022-11-14T06:26:34.156Z,26.67
2022-11-14T06:29:41.191Z,28.30
2022-11-14T06:32:46.457Z,25.20
2022-11-14T06:35:52.357Z,29.80
2022-11-14T06:38:58.480Z,24.73
2022-11-14T06:42:04.251Z,27.10
2022-11-14T06:45:12.233Z,27.10
2022-11-14T06:48:17.689Z,25.60
2022-11-14T06:51:22.918Z,25.17
2022-11-14T06:54:28.746Z,23.90
2022-11-14T06:57:34.377Z,25.40
2022-11-14T07:00:41.177Z,24.87
2022-11-14T07:03:46.866Z,23.77
2022-11-14T07:06:52.710Z,26.33
2022-11-14T07:09:59.276Z,25.67
2022-11-14T07:13:04.755Z,25.93
2022-11-14T07:16:11.737Z,26.80
2022-11-14T07:19:17.238Z,25.13
2022-11-14T07:22:22.887Z,23.97
2022-11-14T07:25:28.515Z,24.97
2022-11-14T07:28:35.326Z,24.97
2022-11-14T07:31:43.087Z,23.57
2022-11-14T07:34:48.348Z,23.20
2022-11-14T07:37:53.736Z,22.63
2022-11-14T07:41:03.749Z,21.17
2022-11-14T07:44:09.222Z,22.93
2022-11-14T07:47:16.319Z,23.07
2022-11-14T07:50:22.282Z,22.33
2022-11-14T07:53:28.692Z,22.93
2022-11-14T07:56:34.341Z,22.50
2022-11-14T07:59:39.910Z,22.80
2022-11-14T08:02:46.984Z,22.07
2022-11-14T08:05:52.477Z,22.73
2022-11-14T08:08:58.092Z,24.30
2022-11-14T08:12:04.023Z,23.20
2022-11-14T08:15:11.775Z,23.20
2022-11-14T08:18:18.972Z,22.47
2022-11-14T08:21:24.769Z,24.10
2022-11-14T08:24:30.501Z,21.73
2022-11-14T08:27:36.531Z,22.53
2022-11-14T08:30:42.094Z,24.93
2022-11-14T08:33:50.621Z,22.80
2022-11-14T08:36:57.447Z,23.43
2022-11-14T08:40:02.849Z,24.77
2022-11-14T08:43:12.129Z,23.57
2022-11-14T08:46:17.683Z,22.30
2022-11-14T08:49:24.783Z,22.63
2022-11-14T08:52:30.498Z,24.47
2022-11-14T08:55:36.205Z,24.50
2022-11-14T08:58:41.891Z,24.00
2022-11-14T09:01:47.773Z,22.80
2022-11-14T09:04:54.312Z,22.70
2022-11-14T09:08:00.228Z,22.33
2022-11-14T09:11:08.399Z,21.37
2022-11-14T09:14:15.601Z,22.37
2022-11-14T09:17:20.971Z,21.77
2022-11-14T09:20:33.250Z,20.53
2022-11-14T09:23:41.490Z,21.20
2022-11-14T09:26:55.042Z,21.77
2022-11-14T09:30:02.389Z,21.37
2022-11-14T09:33:11.725Z,20.30
2022-11-14T09:36:19.909Z,21.13
2022-11-14T09:39:25.564Z,21.03
2022-11-14T09:42:47.361Z,19.13
2022-11-14T09:45:54.736Z,19.70
2022-11-14T09:49:00.206Z,21.27
2022-11-14T09:52:17.223Z,20.20
2022-11-14T09:55:25.153Z,20.03
2022-11-14T09:58:31.976Z,20.60
2022-11-14T10:01:49.666Z,19.70
2022-11-14T10:05:10.167Z,20.57
2022-11-14T10:08:43.531Z,20.90
2022-11-14T10:11:53.906Z,21.00
2022-11-14T10:15:11.732Z,20.07
2022-11-14T10:18:35.069Z,19.90
2022-11-14T10:22:06.124Z,20.33
2022-11-14T10:25:23.954Z,18.07
2022-11-14T10:28:43.176Z,18.63
2022-11-14T10:32:02.820Z,20.63
2022-11-14T10:35:15.850Z,21.03
2022-11-14T10:38:27.630Z,19.37
2022-11-14T10:41:55.959Z,20.67
2022-11-14T10:45:06.734Z,20.03
2022-11-14T10:48:18.272Z,18.77
2022-11-14T10:51:30.569Z,18.60
2022-11-14T10:54:43.031Z,21.13
2022-11-14T10:57:49.739Z,19.07
2022-11-14T11:00:55.070Z,20.27
2022-11-14T11:04:14.066Z,18.93
2022-11-14T11:07:41.605Z,19.67
2022-11-14T11:11:06.184Z,19.37
2022-11-14T11:14:19.046Z,20.07
2022-11-14T11:17:29.480Z,18.83
2022-11-14T11:20:39.028Z,18.97
2022-11-14T11:23:51.566Z,18.10
2022-11-14T11:27:14.535Z,19.60
2022-11-14T11:30:24.553Z,19.87
2022-11-14T11:33:31.909Z,20.63
2022-11-14T11:36:41.931Z,19.40
2022-11-14T11:39:51.033Z,21.20
2022-11-14T11:43:37.777Z,20.20
2022-11-14T11:46:36.674Z,18.70
2022-11-14T11:49:53.010Z,18.43
2022-11-14T11:53:13.763Z,18.03
2022-11-14T11:56:25.944Z,17.87
2022-11-14T11:59:38.935Z,18.90
2022-11-14T12:02:50.112Z,18.93
2022-11-14T12:06:05.381Z,18.03
2022-11-14T12:09:19.062Z,17.57
2022-11-14T12:12:39.614Z,19.37
2022-11-14T12:15:53.070Z,18.70
2022-11-14T12:19:16.850Z,19.10
2022-11-14T12:23:01.695Z,17.87
2022-11-14T12:26:21.571Z,17.37
2022-11-14T12:29:48.435Z,18.93
2022-11-14T12:32:59.290Z,17.33
2022-11-14T12:36:11.635Z,17.83
2022-11-14T12:39:26.329Z,17.80
2022-11-14T12:42:33.442Z,19.03
2022-11-14T12:45:59.946Z,18.47
2022-11-14T12:49:42.631Z,18.43
2022-11-14T12:52:51.448Z,18.70
2022-11-14T12:56:08.975Z,18.67
2022-11-14T12:59:39.039Z,17.97
2022-11-14T13:03:21.347Z,17.37
2022-11-14T13:06:34.553Z,18.67
2022-11-14T13:10:05.118Z,17.70
2022-11-14T13:13:30.444Z,16.50
2022-11-14T13:16:53.234Z,17.73
2022-11-14T13:20:16.649Z,17.77
2022-11-14T13:23:59.525Z,18.60
2022-11-14T13:27:45.592Z,17.20
2022-11-14T13:31:07.743Z,17.97
2022-11-14T13:34:47.276Z,18.27
2022-11-14T13:38:13.982Z,17.17
2022-11-14T13:41:52.200Z,17.33
2022-11-14T13:45:32.956Z,18.67
2022-11-14T13:48:53.120Z,17.93
2022-11-14T13:51:58.858Z,16.43
2022-11-14T13:55:05.495Z,17.37
2022-11-14T13:58:25.340Z,17.10
2022-11-14T14:01:50.221Z,17.70
2022-11-14T14:05:05.287Z,16.80
2022-11-14T14:08:20.887Z,17.13
2022-11-14T14:11:43.472Z,16.73
2022-11-14T14:15:08.139Z,16.37
2022-11-14T14:18:26.644Z,18.17
2022-11-14T14:21:45.342Z,18.60
2022-11-14T14:25:00.697Z,17.40
2022-11-14T14:28:15.785Z,17.50
2022-11-14T14:31:23.489Z,18.03
2022-11-14T14:34:32.693Z,15.97
2022-11-14T14:37:38.292Z,17.67
2022-11-14T14:40:44.230Z,17.50
2022-11-14T14:43:56.224Z,15.50
2022-11-14T14:47:44.862Z,16.87
2022-11-14T14:50:53.756Z,17.43
2022-11-14T14:53:59.217Z,16.60
2022-11-14T14:57:07.000Z,16.83
2022-11-14T15:00:24.250Z,17.13
2022-11-14T15:03:36.992Z,16.53
2022-11-14T15:06:50.716Z,17.20
2022-11-14T15:09:59.081Z,16.40
2022-11-14T15:13:05.936Z,16.90
2022-11-14T15:16:12.663Z,17.23
2022-11-14T15:19:21.545Z,17.20
2022-11-14T15:22:30.367Z,15.93
2022-11-14T15:25:36.133Z,17.67
2022-11-14T15:28:42.164Z,17.40
2022-11-14T15:31:50.243Z,16.70
2022-11-14T15:35:09.648Z,17.63
2022-11-14T15:41:50.827Z,16.90
2022-11-14T15:44:57.288Z,16.87
2022-11-14T15:48:17.122Z,16.40
2022-11-14T15:51:45.382Z,16.37
2022-11-14T15:54:58.309Z,17.63
2022-11-14T15:58:27.211Z,17.00
2022-11-14T16:01:30.969Z,16.80
2022-11-14T16:04:44.441Z,15.80
2022-11-14T16:07:53.380Z,16.20
2022-11-14T16:11:00.135Z,16.20
2022-11-14T16:14:06.503Z,15.87
2022-11-14T16:17:15.094Z,17.27
2022-11-14T16:20:22.664Z,16.67
2022-11-14T16:23:28.253Z,17.30
2022-11-14T16:26:36.132Z,17.57
2022-11-14T16:29:41.954Z,17.33
2022-11-14T16:32:49.988Z,16.83
2022-11-14T16:35:55.527Z,17.30
2022-11-14T16:39:03.258Z,15.73
2022-11-14T16:42:12.200Z,15.37
2022-11-14T16:45:32.746Z,16.17
2022-11-14T16:48:42.228Z,16.43
2022-11-14T16:51:51.289Z,15.17
2022-11-14T16:54:57.157Z,16.20
2022-11-14T16:58:03.961Z,15.57
2022-11-14T17:01:20.113Z,16.50
2022-11-14T17:04:27.806Z,16.23
2022-11-14T17:07:33.814Z,15.03
2022-11-14T17:10:41.646Z,14.97
2022-11-14T17:13:48.802Z,16.93
2022-11-14T17:16:55.945Z,15.33
2022-11-14T17:20:02.643Z,16.00
2022-11-14T17:23:08.317Z,15.23
2022-11-14T17:26:14.978Z,15.50
2022-11-14T17:29:22.016Z,14.43
2022-11-14T17:32:27.644Z,14.63
2022-11-14T17:35:35.739Z,15.00
2022-11-14T17:38:41.314Z,16.43
2022-11-14T17:41:46.578Z,17.00
2022-11-14T17:44:54.391Z,16.17
2022-11-14T17:47:59.576Z,17.40
2022-11-14T17:51:06.428Z,17.10
2022-11-14T17:54:12.025Z,17.43
2022-11-14T17:57:17.686Z,16.30
2022-11-14T18:00:24.631Z,16.33
2022-11-14T18:03:30.441Z,17.93
2022-11-14T18:06:35.811Z,16.90
2022-11-14T18:09:41.577Z,16.53
2022-11-14T18:12:47.326Z,18.23
2022-11-14T18:15:54.007Z,18.40
2022-11-14T18:18:59.333Z,19.13
2022-11-14T18:22:05.218Z,19.00
2022-11-14T18:25:10.848Z,19.67
2022-11-14T18:28:16.737Z,21.43
2022-11-14T18:31:24.087Z,22.90
2022-11-14T18:34:29.653Z,22.07
2022-11-14T18:37:35.155Z,22.97
2022-11-14T18:40:45.029Z,20.27
2022-11-14T18:43:50.540Z,21.37
2022-11-14T18:47:00.004Z,20.77
2022-11-14T18:50:06.055Z,20.67
2022-11-14T18:53:11.411Z,21.13
2022-11-14T18:56:19.184Z,20.27
2022-11-14T18:59:24.168Z,21.33
2022-11-14T19:02:30.819Z,21.70
2022-11-14T19:05:36.875Z,21.37
2022-11-14T19:08:42.950Z,19.77
2022-11-14T19:12:06.000Z,20.17
2022-11-14T19:15:12.320Z,20.20
2022-11-14T19:18:19.516Z,20.23
2022-11-14T19:21:25.796Z,20.47
2022-11-14T19:24:31.239Z,21.27
2022-11-14T19:27:36.858Z,21.80
2022-11-14T19:30:42.529Z,22.37
2022-11-14T19:33:49.625Z,23.03
2022-11-14T19:37:00.638Z,24.03
2022-11-14T19:40:07.936Z,26.80
2022-11-14T19:43:13.449Z,25.63
2022-11-14T19:46:18.979Z,21.10
2022-11-14T19:49:25.769Z,21.10
2022-11-14T19:52:31.216Z,22.00
2022-11-14T19:55:37.215Z,22.17
2022-11-14T19:58:44.783Z,21.60
2022-11-14T20:01:55.410Z,21.53
2022-11-14T20:05:02.342Z,21.83
2022-11-14T20:08:09.999Z,22.47
2022-11-14T20:11:15.413Z,22.07
2022-11-14T20:14:20.748Z,22.77
2022-11-14T20:17:26.311Z,21.40
2022-11-14T20:20:35.065Z,23.57
2022-11-14T20:23:40.627Z,22.30
2022-11-14T20:26:46.318Z,21.37
2022-11-14T20:29:51.923Z,22.07
2022-11-14T20:32:56.947Z,22.60
2022-11-14T20:36:05.690Z,21.10
2022-11-14T20:39:11.115Z,22.10
2022-11-14T20:42:16.323Z,22.07
2022-11-14T20:45:22.232Z,23.40
2022-11-14T20:48:29.168Z,21.37
2022-11-14T20:51:36.762Z,21.43
2022-11-14T20:54:42.132Z,23.53
2022-11-14T20:57:47.641Z,22.73
2022-11-14T21:00:54.002Z,22.60
2022-11-14T21:03:59.292Z,22.50
2022-11-14T21:07:06.344Z,22.80
2022-11-14T21:10:30.845Z,23.30
2022-11-14T21:13:55.247Z,21.60
2022-11-14T21:17:01.585Z,22.33
2022-11-14T21:20:08.512Z,23.37
2022-11-14T21:23:15.256Z,23.90
2022-11-14T21:26:23.412Z,22.03
2022-11-14T21:29:28.578Z,20.20
2022-11-14T21:32:36.378Z,20.03
2022-11-14T21:35:42.046Z,21.70
2022-11-14T21:38:49.595Z,19.93
2022-11-14T21:41:55.413Z,21.67
2022-11-14T21:45:01.992Z,21.10
2022-11-14T21:48:07.689Z,19.97
2022-11-14T21:51:14.804Z,19.43
2022-11-14T21:54:21.802Z,19.50
2022-11-14T21:57:27.702Z,19.43
2022-11-14T22:00:33.200Z,19.80
2022-11-14T22:03:56.555Z,19.77
2022-11-14T22:07:03.772Z,21.07
2022-11-14T22:10:11.257Z,19.80
2022-11-14T22:13:17.179Z,21.67
2022-11-14T22:16:22.817Z,18.97
2022-11-14T22:19:28.110Z,22.43
2022-11-14T22:22:34.166Z,21.63
2022-11-14T22:25:41.136Z,17.73
2022-11-14T22:28:47.196Z,20.37
2022-11-14T22:31:55.544Z,18.63
2022-11-14T22:35:00.746Z,18.17
2022-11-14T22:38:05.970Z,17.40
2022-11-14T22:41:15.903Z,19.13
2022-11-14T22:44:21.521Z,17.80
2022-11-14T22:47:27.396Z,19.47
2022-11-14T22:50:33.413Z,19.47
2022-11-14T22:53:39.788Z,18.73
2022-11-14T22:56:46.867Z,21.20
2022-11-14T22:59:52.720Z,18.87
2022-11-14T23:02:58.167Z,20.73
2022-11-14T23:06:07.863Z,19.23
2022-11-14T23:09:13.365Z,17.50
2022-11-14T23:12:20.460Z,16.93
2022-11-14T23:15:26.939Z,17.90
2022-11-14T23:18:32.623Z,18.97
2022-11-14T23:21:38.500Z,18.77
2022-11-14T23:24:43.922Z,18.83
2022-11-14T23:27:51.053Z,17.53
2022-11-14T23:30:56.988Z,17.13
2022-11-14T23:34:02.772Z,17.70
2022-11-14T23:37:08.376Z,17.70
2022-11-14T23:40:14.315Z,17.20
2022-11-14T23:43:21.231Z,16.60
2022-11-14T23:46:26.823Z,16.67
2022-11-14T23:49:32.571Z,17.13
2022-11-14T23:52:38.356Z,17.77
2022-11-14T23:55:43.941Z,17.53
2022-11-14T23:58:50.517Z,18.83
